createdAt,value
2022-10-20T00:00:58.181Z,7.57
2022-10-20T00:02:01.799Z,8.60
2022-10-20T00:03:03.770Z,7.33
2022-10-20T00:04:07.601Z,7.10
2022-10-20T00:05:10.228Z,7.93
2022-10-20T00:06:16.209Z,7.90
2022-10-20T00:07:18.074Z,8.17
2022-10-20T00:08:21.258Z,7.73
2022-10-20T00:09:23.066Z,6.97
2022-10-20T00:10:24.753Z,7.30
2022-10-20T00:11:29.026Z,7.53
2022-10-20T00:12:30.879Z,7.70
2022-10-20T00:13:33.237Z,7.20
2022-10-20T00:14:35.182Z,7.73
2022-10-20T00:15:36.912Z,6.90
2022-10-20T00:16:40.294Z,7.50
2022-10-20T00:17:42.525Z,6.30
2022-10-20T00:18:47.570Z,6.53
2022-10-20T00:19:50.113Z,6.60
2022-10-20T00:20:52.412Z,6.67
2022-10-20T00:21:55.959Z,6.30
2022-10-20T00:22:59.990Z,6.40
2022-10-20T00:24:03.630Z,6.93
2022-10-20T00:25:05.767Z,6.70
2022-10-20T00:26:24.337Z,7.50
2022-10-20T00:27:26.673Z,8.67
2022-10-20T00:28:28.553Z,9.30
2022-10-20T00:29:30.320Z,9.23
2022-10-20T00:30:35.036Z,8.70
2022-10-20T00:31:36.971Z,9.17
2022-10-20T00:32:40.318Z,8.93
2022-10-20T00:33:42.357Z,10.33
2022-10-20T00:34:44.317Z,7.90
2022-10-20T00:35:47.746Z,9.67
2022-10-20T00:36:51.652Z,9.50
2022-10-20T00:37:55.255Z,9.10
2022-10-20T00:39:06.029Z,10.03
2022-10-20T00:40:16.299Z,10.90
2022-10-20T00:41:21.159Z,11.00
2022-10-20T00:42:23.640Z,10.95
2022-10-20T00:44:00.161Z,10.77
2022-10-20T00:45:14.086Z,10.80
2022-10-20T00:46:22.538Z,11.27
2022-10-20T00:47:57.639Z,11.93
2022-10-20T00:49:09.226Z,11.13
2022-10-20T00:50:21.886Z,11.60
2022-10-20T00:51:28.549Z,11.97
2022-10-20T00:52:31.399Z,11.27
2022-10-20T00:53:35.017Z,12.67
2022-10-20T00:54:38.686Z,12.77
2022-10-20T00:55:43.157Z,13.27
2022-10-20T00:56:47.502Z,13.40
2022-10-20T00:57:52.451Z,12.90
2022-10-20T00:58:54.714Z,12.00
2022-10-20T01:00:02.371Z,13.37
2022-10-20T01:01:06.473Z,11.50
2022-10-20T01:02:10.578Z,13.53
2022-10-20T01:03:36.346Z,13.27
2022-10-20T01:04:38.769Z,14.13
2022-10-20T01:05:40.577Z,13.50
2022-10-20T01:06:42.514Z,12.60
2022-10-20T01:07:44.195Z,14.45
2022-10-20T01:08:46.358Z,14.70
2022-10-20T01:09:48.697Z,13.20
2022-10-20T01:11:07.497Z,13.50
2022-10-20T01:12:30.788Z,16.40
2022-10-20T01:13:41.337Z,15.17
2022-10-20T01:14:56.120Z,14.18
2022-10-20T01:16:19.385Z,15.03
2022-10-20T01:17:26.604Z,15.70
2022-10-20T01:18:42.132Z,13.80
2022-10-20T01:20:11.167Z,15.83
2022-10-20T01:21:18.707Z,16.42
2022-10-20T01:22:45.466Z,18.30
2022-10-20T01:23:52.921Z,16.67
2022-10-20T01:25:31.573Z,16.15
2022-10-20T01:26:59.422Z,15.25
2022-10-20T01:28:12.556Z,14.93
2022-10-20T01:29:26.166Z,15.10
2022-10-20T01:30:28.303Z,15.37
2022-10-20T01:31:58.246Z,17.80
2022-10-20T01:33:22.639Z,17.00
2022-10-20T01:34:46.872Z,18.27
2022-10-20T01:36:12.709Z,15.65
2022-10-20T01:37:28.147Z,15.77
2022-10-20T01:38:51.874Z,17.25
2022-10-20T01:40:01.910Z,17.38
2022-10-20T01:41:06.828Z,16.63
2022-10-20T01:42:16.658Z,16.57
2022-10-20T01:43:22.556Z,16.80
2022-10-20T01:44:27.008Z,17.13
2022-10-20T01:45:32.802Z,19.02
2022-10-20T01:46:37.482Z,17.37
2022-10-20T01:47:43.140Z,17.20
2022-10-20T01:48:46.641Z,18.27
2022-10-20T01:49:50.013Z,18.65
2022-10-20T01:50:52.227Z,19.58
2022-10-20T01:51:58.389Z,20.60
2022-10-20T01:53:11.684Z,18.95
2022-10-20T01:54:32.950Z,19.30
2022-10-20T01:55:35.700Z,18.33
2022-10-20T01:56:45.572Z,17.63
2022-10-20T01:57:57.406Z,19.67
2022-10-20T01:59:08.183Z,19.00
2022-10-20T02:00:12.593Z,19.00
2022-10-20T02:01:58.813Z,19.58
2022-10-20T02:03:30.604Z,17.20
2022-10-20T02:04:44.829Z,19.70
2022-10-20T02:06:13.755Z,18.83
2022-10-20T02:07:24.897Z,17.92
2022-10-20T02:08:42.304Z,18.37
2022-10-20T02:11:03.150Z,19.63
2022-10-20T02:12:09.812Z,19.37
2022-10-20T02:13:14.236Z,21.88
2022-10-20T02:14:20.593Z,21.30
2022-10-20T02:15:25.975Z,20.08
2022-10-20T02:16:32.007Z,20.85
2022-10-20T02:17:35.701Z,19.98
2022-10-20T02:18:42.803Z,22.58
2022-10-20T02:19:46.593Z,23.90
2022-10-20T02:20:53.133Z,23.87
2022-10-20T02:21:57.592Z,23.70
2022-10-20T02:23:03.193Z,23.10
2022-10-20T02:24:08.737Z,20.67
2022-10-20T02:25:12.254Z,19.75
2022-10-20T02:26:16.567Z,18.90
2022-10-20T02:27:27.866Z,19.67
2022-10-20T02:28:32.960Z,20.50
2022-10-20T02:29:42.506Z,20.23
2022-10-20T02:30:46.047Z,21.03
2022-10-20T02:31:48.606Z,20.60
2022-10-20T02:32:53.732Z,20.07
2022-10-20T02:33:57.046Z,20.13
2022-10-20T02:35:02.153Z,19.33
2022-10-20T02:36:13.513Z,20.67
2022-10-20T02:38:18.793Z,22.15
2022-10-20T02:39:22.635Z,22.27
2022-10-20T02:40:25.018Z,21.88
2022-10-20T02:41:26.961Z,24.90
2022-10-20T02:42:30.501Z,24.67
2022-10-20T02:43:32.937Z,23.60
2022-10-20T02:44:34.630Z,23.25
2022-10-20T02:45:36.314Z,23.55
2022-10-20T02:46:38.581Z,23.42
2022-10-20T02:47:40.485Z,26.10
2022-10-20T02:48:42.486Z,25.50
2022-10-20T02:49:44.435Z,26.88
2022-10-20T02:50:46.071Z,26.00
2022-10-20T02:51:50.183Z,25.17
2022-10-20T02:52:53.310Z,26.27
2022-10-20T02:53:56.843Z,23.55
2022-10-20T02:55:00.347Z,25.37
2022-10-20T02:56:02.049Z,27.30
2022-10-20T02:57:04.638Z,28.65
2022-10-20T02:58:06.671Z,29.45
2022-10-20T02:59:13.305Z,28.30
2022-10-20T03:00:15.431Z,28.05
2022-10-20T03:01:17.922Z,28.33
2022-10-20T03:02:19.897Z,28.08
2022-10-20T03:03:21.845Z,29.30
2022-10-20T03:04:23.715Z,29.73
2022-10-20T03:05:27.190Z,28.77
2022-10-20T03:06:30.068Z,26.98
2022-10-20T03:07:31.928Z,25.55
2022-10-20T03:08:33.955Z,25.30
2022-10-20T03:09:35.530Z,26.90
2022-10-20T03:10:39.187Z,25.45
2022-10-20T03:11:41.272Z,25.38
2022-10-20T03:12:44.359Z,25.73
2022-10-20T03:13:45.933Z,27.33
2022-10-20T03:14:47.668Z,25.83
2022-10-20T03:15:49.285Z,25.70
2022-10-20T03:16:51.624Z,23.35
2022-10-20T03:17:54.294Z,25.48
2022-10-20T03:18:58.799Z,25.83
2022-10-20T03:20:08.339Z,24.63
2022-10-20T03:21:09.862Z,25.13
2022-10-20T03:22:11.639Z,27.17
2022-10-20T03:23:15.208Z,25.30
2022-10-20T03:24:20.245Z,25.42
2022-10-20T03:25:21.830Z,27.00
2022-10-20T03:26:23.658Z,25.30
2022-10-20T03:27:25.201Z,24.38
2022-10-20T03:28:26.875Z,24.83
2022-10-20T03:29:29.045Z,27.15
2022-10-20T03:30:30.935Z,25.48
2022-10-20T03:31:32.837Z,27.30
2022-10-20T03:32:35.176Z,25.92
2022-10-20T03:33:39.120Z,27.42
2022-10-20T03:34:40.946Z,28.55
2022-10-20T03:35:42.841Z,28.50
2022-10-20T03:36:44.769Z,28.30
2022-10-20T03:37:46.982Z,27.63
2022-10-20T03:38:48.626Z,28.95
2022-10-20T03:39:50.169Z,29.52
2022-10-20T03:40:52.084Z,25.47
2022-10-20T03:41:57.915Z,26.63
2022-10-20T03:42:59.652Z,24.90
2022-10-20T03:44:01.707Z,23.13
2022-10-20T03:45:03.719Z,26.00
2022-10-20T03:46:08.614Z,25.50
2022-10-20T03:47:11.050Z,24.92
2022-10-20T03:48:12.938Z,21.90
2022-10-20T03:49:14.743Z,25.35
2022-10-20T03:50:20.385Z,25.85
2022-10-20T03:51:23.581Z,25.90
2022-10-20T03:52:29.509Z,25.73
2022-10-20T03:53:32.886Z,24.25
2022-10-20T03:54:39.116Z,24.63
2022-10-20T03:55:45.121Z,26.67
2022-10-20T03:56:52.326Z,25.30
2022-10-20T03:57:54.258Z,25.88
2022-10-20T03:58:57.147Z,26.30
2022-10-20T04:00:06.696Z,23.77
2022-10-20T04:01:15.767Z,25.67
2022-10-20T04:02:41.599Z,29.60
2022-10-20T04:03:45.408Z,28.42
2022-10-20T04:04:48.221Z,26.27
2022-10-20T04:05:50.137Z,26.75
2022-10-20T04:06:53.191Z,25.88
2022-10-20T04:07:55.890Z,24.52
2022-10-20T04:08:57.613Z,24.95
2022-10-20T04:10:04.624Z,23.87
2022-10-20T04:11:07.256Z,23.93
2022-10-20T04:12:11.470Z,22.30
2022-10-20T04:13:13.563Z,20.52
2022-10-20T04:14:15.638Z,23.02
2022-10-20T04:15:19.109Z,22.15
2022-10-20T04:16:21.362Z,22.02
2022-10-20T04:17:24.556Z,20.98
2022-10-20T04:18:26.157Z,21.90
2022-10-20T04:19:29.878Z,22.03
2022-10-20T04:20:31.827Z,19.88
2022-10-20T04:21:37.067Z,20.85
2022-10-20T04:22:41.204Z,21.02
2022-10-20T04:23:44.353Z,20.65
2022-10-20T04:24:46.339Z,22.40
2022-10-20T04:25:49.346Z,23.38
2022-10-20T04:26:51.236Z,22.15
2022-10-20T04:27:53.097Z,22.30
2022-10-20T04:28:57.508Z,21.52
2022-10-20T04:30:01.390Z,22.27
2022-10-20T04:31:03.471Z,22.98
2022-10-20T04:32:05.818Z,21.13
2022-10-20T04:33:07.826Z,22.08
2022-10-20T04:34:09.901Z,22.52
2022-10-20T04:35:12.251Z,23.27
2022-10-20T04:36:15.990Z,23.83
2022-10-20T04:37:18.491Z,23.45
2022-10-20T04:38:21.792Z,20.45
2022-10-20T04:39:26.308Z,23.50
2022-10-20T04:40:28.086Z,23.98
2022-10-20T04:41:31.091Z,22.85
2022-10-20T04:42:32.972Z,22.33
2022-10-20T04:43:35.641Z,22.23
2022-10-20T04:44:39.590Z,22.42
2022-10-20T04:45:42.435Z,22.30
2022-10-20T04:46:48.635Z,24.65
2022-10-20T04:47:54.470Z,25.17
2022-10-20T04:48:56.109Z,24.48
2022-10-20T04:50:07.196Z,24.60
2022-10-20T04:51:11.779Z,22.42
2022-10-20T04:52:14.509Z,25.77
2022-10-20T04:53:16.218Z,24.90
2022-10-20T04:54:18.361Z,26.60
2022-10-20T04:55:20.664Z,26.25
2022-10-20T04:56:23.340Z,27.35
2022-10-20T04:57:26.685Z,27.63
2022-10-20T04:58:28.672Z,29.58
2022-10-20T04:59:30.244Z,32.17
2022-10-20T05:00:32.182Z,31.30
2022-10-20T05:01:36.525Z,32.67
2022-10-20T05:02:38.713Z,32.50
2022-10-20T05:03:41.005Z,31.33
2022-10-20T05:04:42.534Z,33.03
2022-10-20T05:05:44.167Z,31.48
2022-10-20T05:06:45.968Z,31.15
2022-10-20T05:07:49.760Z,33.17
2022-10-20T05:08:54.126Z,32.67
2022-10-20T05:10:00.462Z,29.60
2022-10-20T05:11:03.689Z,29.55
2022-10-20T05:12:05.710Z,29.37
2022-10-20T05:13:08.862Z,27.80
2022-10-20T05:14:11.520Z,29.63
2022-10-20T05:15:13.268Z,30.17
2022-10-20T05:16:17.804Z,31.92
2022-10-20T05:17:22.528Z,26.00
2022-10-20T05:18:26.127Z,25.87
2022-10-20T05:19:28.103Z,29.33
2022-10-20T05:20:36.809Z,30.88
2022-10-20T05:21:45.596Z,28.25
2022-10-20T05:22:47.582Z,26.30
2022-10-20T05:23:50.101Z,23.38
2022-10-20T05:24:58.409Z,26.50
2022-10-20T05:26:12.664Z,27.17
2022-10-20T05:27:16.602Z,25.00
2022-10-20T05:28:18.155Z,26.30
2022-10-20T05:29:20.473Z,26.40
2022-10-20T05:30:22.179Z,27.70
2022-10-20T05:31:27.575Z,27.08
2022-10-20T05:32:32.312Z,23.80
2022-10-20T05:33:37.754Z,24.00
2022-10-20T05:34:39.649Z,23.03
2022-10-20T05:35:41.508Z,25.50
2022-10-20T05:36:44.191Z,27.13
2022-10-20T05:37:46.378Z,25.20
2022-10-20T05:38:48.955Z,24.38
2022-10-20T05:39:50.992Z,25.48
2022-10-20T05:40:52.639Z,24.23
2022-10-20T05:41:54.309Z,24.52
2022-10-20T05:43:00.040Z,25.80
2022-10-20T05:44:04.501Z,24.25
2022-10-20T05:45:07.715Z,22.27
2022-10-20T05:46:09.919Z,22.43
2022-10-20T05:47:15.176Z,22.88
2022-10-20T05:48:17.387Z,25.05
2022-10-20T05:49:19.265Z,26.15
2022-10-20T05:50:22.333Z,27.02
2022-10-20T05:51:26.513Z,27.83
2022-10-20T05:52:36.279Z,30.88
2022-10-20T05:53:40.762Z,30.83
2022-10-20T05:54:42.912Z,32.40
2022-10-20T05:55:47.025Z,33.33
2022-10-20T05:56:48.666Z,30.83
2022-10-20T05:57:52.499Z,31.57
2022-10-20T05:58:57.659Z,29.95
2022-10-20T05:59:59.615Z,28.90
2022-10-20T06:01:20.709Z,30.52
2022-10-20T06:02:22.518Z,29.93
2022-10-20T06:03:28.120Z,28.98
2022-10-20T06:04:31.334Z,28.17
2022-10-20T06:05:33.446Z,29.00
2022-10-20T06:06:36.158Z,31.63
2022-10-20T06:07:37.856Z,30.80
2022-10-20T06:08:42.796Z,30.13
2022-10-20T06:09:44.459Z,29.48
2022-10-20T06:10:47.315Z,31.27
2022-10-20T06:11:51.436Z,30.10
2022-10-20T06:12:53.475Z,29.57
2022-10-20T06:13:56.666Z,29.17
2022-10-20T06:14:58.438Z,28.00
2022-10-20T06:16:16.070Z,29.38
2022-10-20T06:17:18.450Z,27.52
2022-10-20T06:18:20.133Z,26.05
2022-10-20T06:19:23.740Z,27.35
2022-10-20T06:20:25.534Z,24.97
2022-10-20T06:21:30.765Z,27.95
2022-10-20T06:22:33.192Z,25.25
2022-10-20T06:23:36.875Z,25.58
2022-10-20T06:24:41.528Z,25.42
2022-10-20T06:25:46.148Z,27.63
2022-10-20T06:26:48.309Z,26.92
2022-10-20T06:27:55.431Z,25.92
2022-10-20T06:29:03.659Z,25.23
2022-10-20T06:30:08.715Z,21.83
2022-10-20T06:31:23.401Z,23.08
2022-10-20T06:32:25.551Z,21.98
2022-10-20T06:33:31.751Z,22.55
2022-10-20T06:34:36.611Z,22.90
2022-10-20T06:35:38.739Z,22.10
2022-10-20T06:36:47.898Z,19.92
2022-10-20T06:37:50.839Z,20.80
2022-10-20T06:38:57.811Z,21.80
2022-10-20T06:39:59.906Z,21.42
2022-10-20T06:41:04.122Z,24.10
2022-10-20T06:42:11.244Z,23.75
2022-10-20T06:43:14.203Z,24.75
2022-10-20T06:44:24.889Z,26.60
2022-10-20T06:45:26.867Z,25.45
2022-10-20T06:46:31.372Z,28.20
2022-10-20T06:47:33.005Z,29.02
2022-10-20T06:48:36.327Z,30.75
2022-10-20T06:49:43.836Z,29.95
2022-10-20T06:50:45.983Z,29.38
2022-10-20T06:51:50.538Z,32.17
2022-10-20T06:52:52.883Z,26.67
2022-10-20T06:53:56.771Z,28.07
2022-10-20T06:54:58.718Z,29.77
2022-10-20T06:56:04.030Z,30.80
2022-10-20T06:57:06.001Z,33.00
2022-10-20T06:58:10.297Z,31.15
2022-10-20T06:59:12.254Z,31.13
2022-10-20T07:00:19.119Z,28.27
2022-10-20T07:01:25.252Z,30.13
2022-10-20T07:02:27.567Z,29.90
2022-10-20T07:03:33.570Z,28.92
2022-10-20T07:04:35.341Z,27.65
2022-10-20T07:05:37.135Z,28.90
2022-10-20T07:06:41.881Z,26.88
2022-10-20T07:07:44.493Z,29.08
2022-10-20T07:08:47.214Z,26.50
2022-10-20T07:09:49.277Z,26.75
2022-10-20T07:11:05.046Z,26.15
2022-10-20T07:12:06.808Z,26.13
2022-10-20T07:13:09.743Z,24.10
2022-10-20T07:14:22.621Z,26.00
2022-10-20T07:15:24.510Z,26.37
2022-10-20T07:16:28.427Z,22.87
2022-10-20T07:17:30.382Z,25.77
2022-10-20T07:18:36.080Z,24.67
2022-10-20T07:19:39.634Z,24.60
2022-10-20T07:20:41.465Z,27.97
2022-10-20T07:21:45.502Z,25.48
2022-10-20T07:22:47.612Z,25.33
2022-10-20T07:23:50.881Z,26.90
2022-10-20T07:24:54.865Z,24.83
2022-10-20T07:26:38.391Z,27.60
2022-10-20T07:27:40.126Z,24.58
2022-10-20T07:28:45.082Z,25.45
2022-10-20T07:29:46.901Z,25.20
2022-10-20T07:30:49.143Z,25.20
2022-10-20T07:31:50.917Z,23.05
2022-10-20T07:32:52.471Z,23.30
2022-10-20T07:34:13.181Z,23.92
2022-10-20T07:35:16.078Z,22.10
2022-10-20T07:36:21.101Z,21.60
2022-10-20T07:37:23.073Z,21.30
2022-10-20T07:38:25.197Z,23.50
2022-10-20T07:39:27.541Z,20.95
2022-10-20T07:40:30.066Z,22.77
2022-10-20T07:41:33.896Z,20.60
2022-10-20T07:42:38.853Z,22.90
2022-10-20T07:43:41.821Z,22.20
2022-10-20T07:44:43.506Z,21.40
2022-10-20T07:45:45.455Z,21.63
2022-10-20T07:46:47.587Z,21.73
2022-10-20T07:47:50.158Z,20.60
2022-10-20T07:48:52.207Z,24.50
2022-10-20T07:49:54.858Z,22.10
2022-10-20T07:51:28.699Z,20.43
2022-10-20T07:52:31.636Z,23.80
2022-10-20T07:53:34.316Z,23.53
2022-10-20T07:54:36.261Z,22.93
2022-10-20T07:55:39.195Z,22.77
2022-10-20T07:56:44.994Z,22.50
2022-10-20T07:57:47.965Z,19.48
2022-10-20T07:58:49.776Z,22.80
2022-10-20T07:59:51.668Z,23.00
2022-10-20T08:00:54.054Z,20.93
2022-10-20T08:01:56.233Z,21.10
2022-10-20T08:03:00.034Z,21.13
2022-10-20T08:04:02.566Z,22.00
2022-10-20T08:05:04.669Z,21.23
2022-10-20T08:06:08.434Z,21.90
2022-10-20T08:07:11.345Z,21.00
2022-10-20T08:08:14.840Z,23.83
2022-10-20T08:09:17.876Z,23.90
2022-10-20T08:10:19.753Z,23.97
2022-10-20T08:11:25.153Z,23.85
2022-10-20T08:12:27.167Z,24.80
2022-10-20T08:13:29.659Z,22.97
2022-10-20T08:14:33.905Z,21.27
2022-10-20T08:15:37.589Z,22.47
2022-10-20T08:16:44.460Z,20.17
2022-10-20T08:17:46.464Z,21.53
2022-10-20T08:18:52.707Z,21.47
2022-10-20T08:21:14.671Z,20.67
2022-10-20T08:22:16.446Z,19.73
2022-10-20T08:23:18.709Z,19.90
2022-10-20T08:24:20.473Z,20.10
2022-10-20T08:25:22.861Z,18.77
2022-10-20T08:26:26.990Z,19.10
2022-10-20T08:27:28.899Z,16.57
2022-10-20T08:28:30.839Z,14.93
2022-10-20T08:29:32.961Z,16.33
2022-10-20T08:30:37.927Z,16.60
2022-10-20T08:31:43.261Z,15.83
2022-10-20T08:32:46.134Z,15.50
2022-10-20T08:33:52.331Z,17.30
2022-10-20T08:34:58.820Z,16.00
2022-10-20T08:36:07.352Z,16.73
2022-10-20T08:37:10.475Z,18.03
2022-10-20T08:38:12.299Z,19.27
2022-10-20T08:39:14.628Z,18.13
2022-10-20T08:40:19.781Z,18.50
2022-10-20T08:41:27.124Z,18.83
2022-10-20T08:42:39.388Z,20.93
2022-10-20T08:43:42.524Z,20.30
2022-10-20T08:44:47.191Z,20.87
2022-10-20T08:45:51.346Z,18.03
2022-10-20T08:46:53.500Z,19.40
2022-10-20T08:47:58.871Z,19.53
2022-10-20T08:49:02.233Z,21.50
2022-10-20T08:50:10.154Z,19.27
2022-10-20T08:51:44.188Z,19.33
2022-10-20T08:53:32.918Z,18.97
2022-10-20T08:54:43.951Z,18.57
2022-10-20T08:55:55.312Z,18.90
2022-10-20T08:58:24.694Z,18.63
2022-10-20T08:59:34.714Z,20.83
2022-10-20T09:00:38.463Z,19.17
2022-10-20T09:01:41.029Z,19.40
2022-10-20T09:02:43.020Z,18.77
2022-10-20T09:03:47.849Z,18.80
2022-10-20T09:05:01.110Z,19.67
2022-10-20T09:06:29.180Z,19.07
2022-10-20T09:07:37.318Z,17.50
2022-10-20T09:08:41.120Z,17.20
2022-10-20T09:09:43.219Z,17.37
2022-10-20T09:10:50.970Z,17.67
2022-10-20T09:12:01.015Z,15.60
2022-10-20T09:13:11.654Z,16.80
2022-10-20T09:14:13.546Z,16.63
2022-10-20T09:15:17.925Z,19.80
2022-10-20T09:16:55.663Z,18.37
2022-10-20T09:18:05.089Z,16.93
2022-10-20T09:19:15.473Z,16.30
2022-10-20T09:20:38.855Z,17.13
2022-10-20T09:21:42.904Z,15.67
2022-10-20T09:22:45.860Z,15.50
2022-10-20T09:23:52.663Z,14.50
2022-10-20T09:24:58.508Z,15.07
2022-10-20T09:26:00.360Z,15.70
2022-10-20T09:27:30.067Z,16.20
2022-10-20T09:28:42.925Z,15.13
2022-10-20T09:29:51.142Z,15.00
2022-10-20T09:30:56.906Z,15.30
2022-10-20T09:32:03.722Z,13.67
2022-10-20T09:33:28.740Z,13.77
2022-10-20T09:34:32.809Z,12.67
2022-10-20T09:35:36.442Z,13.63
2022-10-20T09:36:40.987Z,13.77
2022-10-20T09:37:46.028Z,11.07
2022-10-20T09:38:50.130Z,12.40
2022-10-20T09:39:57.322Z,12.23
2022-10-20T09:41:10.917Z,13.00
2022-10-20T09:42:15.532Z,12.10
2022-10-20T09:43:18.501Z,14.00
2022-10-20T09:44:25.142Z,14.00
2022-10-20T09:45:30.200Z,12.57
2022-10-20T09:46:40.152Z,15.30
2022-10-20T09:47:48.064Z,11.23
2022-10-20T09:48:52.007Z,11.57
2022-10-20T09:50:01.440Z,11.90
2022-10-20T09:51:06.207Z,10.60
2022-10-20T09:52:30.665Z,11.60
2022-10-20T09:53:48.761Z,12.60
2022-10-20T09:54:55.191Z,12.23
2022-10-20T09:55:56.929Z,13.07
2022-10-20T09:57:16.937Z,11.90
2022-10-20T09:58:33.118Z,11.50
2022-10-20T09:59:40.718Z,11.40
2022-10-20T10:00:54.750Z,12.40
2022-10-20T10:02:04.711Z,13.10
2022-10-20T10:03:22.315Z,14.60
2022-10-20T10:04:36.823Z,14.40
2022-10-20T10:05:39.119Z,14.97
2022-10-20T10:06:44.765Z,14.67
2022-10-20T10:07:59.392Z,13.20
2022-10-20T10:09:02.593Z,14.27
2022-10-20T10:10:34.634Z,13.80
2022-10-20T10:11:37.052Z,13.97
2022-10-20T10:12:39.114Z,14.10
2022-10-20T10:13:44.870Z,13.57
2022-10-20T10:15:40.748Z,14.17
2022-10-20T10:16:43.462Z,14.30
2022-10-20T10:17:45.365Z,15.90
2022-10-20T10:18:57.328Z,12.20
2022-10-20T10:20:00.525Z,13.30
2022-10-20T10:21:09.284Z,12.23
2022-10-20T10:22:12.833Z,13.47
2022-10-20T10:23:18.885Z,14.30
2022-10-20T10:24:31.135Z,14.20
2022-10-20T10:25:33.218Z,12.20
2022-10-20T10:26:38.317Z,12.60
2022-10-20T10:27:41.333Z,12.50
2022-10-20T10:28:43.014Z,11.50
2022-10-20T10:29:44.883Z,13.00
2022-10-20T10:30:49.491Z,12.27
2022-10-20T10:32:02.333Z,11.17
2022-10-20T10:33:28.586Z,10.70
2022-10-20T10:34:47.647Z,9.80
2022-10-20T10:35:51.241Z,8.03
2022-10-20T10:36:54.448Z,9.27
2022-10-20T10:37:59.209Z,8.40
2022-10-20T10:39:04.826Z,8.80
2022-10-20T10:40:35.381Z,10.03
2022-10-20T10:41:54.411Z,8.90
2022-10-20T10:43:21.241Z,8.20
2022-10-20T10:44:26.983Z,9.47
2022-10-20T10:45:54.195Z,8.60
2022-10-20T10:47:07.576Z,9.53
2022-10-20T10:48:33.790Z,9.33
2022-10-20T10:49:42.336Z,9.10
2022-10-20T10:50:57.921Z,9.80
2022-10-20T10:52:17.884Z,8.60
2022-10-20T10:53:58.264Z,8.30
2022-10-20T10:55:30.649Z,9.00
2022-10-20T10:56:50.825Z,10.40
2022-10-20T10:58:02.951Z,9.20
2022-10-20T10:59:18.067Z,8.80
2022-10-20T11:00:54.175Z,8.47
2022-10-20T11:02:33.024Z,9.53
2022-10-20T11:03:57.116Z,8.80
2022-10-20T11:05:17.604Z,9.43
2022-10-20T11:06:58.198Z,11.43
2022-10-20T11:08:19.113Z,10.33
2022-10-20T11:09:26.043Z,10.23
2022-10-20T11:10:49.887Z,11.97
2022-10-20T11:12:03.822Z,10.83
2022-10-20T11:13:22.987Z,11.83
2022-10-20T11:14:42.554Z,10.10
2022-10-20T11:15:52.922Z,10.87
2022-10-20T11:17:38.692Z,11.07
2022-10-20T11:19:00.491Z,11.53
2022-10-20T11:20:22.214Z,12.60
2022-10-20T11:21:43.214Z,10.40
2022-10-20T11:22:56.656Z,12.23
2022-10-20T11:24:01.729Z,12.03
2022-10-20T11:25:09.754Z,11.00
2022-10-20T11:26:24.258Z,11.67
2022-10-20T11:27:34.341Z,10.30
2022-10-20T11:28:46.801Z,12.30
2022-10-20T11:29:58.692Z,11.17
2022-10-20T11:31:02.087Z,13.53
2022-10-20T11:32:16.486Z,13.13
2022-10-20T11:33:26.996Z,13.40
2022-10-20T11:34:42.668Z,12.67
2022-10-20T11:36:26.185Z,13.13
2022-10-20T11:37:34.087Z,13.20
2022-10-20T11:38:53.819Z,13.00
2022-10-20T11:40:11.405Z,13.20
2022-10-20T11:41:21.033Z,13.80
2022-10-20T11:42:46.126Z,13.50
2022-10-20T11:43:58.881Z,14.20
2022-10-20T11:45:05.699Z,13.60
2022-10-20T11:46:15.738Z,13.90
2022-10-20T11:47:22.984Z,14.13
2022-10-20T11:48:55.060Z,13.20
2022-10-20T11:49:56.999Z,13.80
2022-10-20T11:51:17.691Z,13.83
2022-10-20T11:52:25.395Z,12.60
2022-10-20T11:53:46.813Z,11.93
2022-10-20T11:55:18.433Z,10.90
2022-10-20T11:56:35.490Z,11.77
2022-10-20T12:11:59.563Z,13.73
2022-10-20T12:13:24.207Z,12.97
2022-10-20T12:14:44.727Z,11.40
2022-10-20T12:15:48.812Z,11.97
2022-10-20T12:16:58.573Z,11.13
2022-10-20T12:18:06.954Z,13.53
2022-10-20T12:19:32.318Z,10.50
2022-10-20T12:20:40.016Z,11.37
2022-10-20T12:22:00.577Z,12.07
2022-10-20T12:23:03.813Z,11.00
2022-10-20T12:24:39.552Z,11.53
2022-10-20T12:25:42.891Z,11.13
2022-10-20T12:27:04.543Z,12.27
2022-10-20T12:28:22.455Z,10.80
2022-10-20T12:29:34.147Z,11.20
2022-10-20T12:30:38.926Z,10.90
2022-10-20T12:32:24.605Z,10.50
2022-10-20T12:34:00.672Z,10.57
2022-10-20T12:35:11.570Z,10.13
2022-10-20T12:36:19.005Z,9.53
2022-10-20T12:37:33.156Z,9.90
2022-10-20T12:38:35.000Z,10.30
2022-10-20T12:39:38.423Z,10.50
2022-10-20T12:40:47.553Z,12.00
2022-10-20T12:41:59.858Z,10.30
2022-10-20T12:43:01.810Z,10.30
2022-10-20T12:44:07.151Z,11.10
2022-10-20T12:45:24.228Z,8.80
2022-10-20T12:46:30.790Z,8.80
2022-10-20T12:47:37.020Z,9.03
2022-10-20T12:48:45.535Z,9.10
2022-10-20T12:50:26.116Z,9.17
2022-10-20T12:52:00.068Z,9.60
2022-10-20T12:53:27.441Z,8.90
2022-10-20T12:54:41.918Z,9.27
2022-10-20T12:55:59.243Z,8.00
2022-10-20T12:57:26.897Z,9.20
2022-10-20T12:58:32.065Z,8.83
2022-10-20T12:59:38.672Z,7.07
2022-10-20T13:00:50.100Z,9.10
2022-10-20T13:02:30.371Z,8.07
2022-10-20T13:03:32.535Z,9.03
2022-10-20T13:05:02.872Z,7.83
2022-10-20T13:06:23.481Z,7.80
2022-10-20T13:07:50.113Z,9.07
2022-10-20T13:09:05.062Z,9.10
2022-10-20T13:10:32.043Z,11.23
2022-10-20T13:11:47.222Z,10.30
2022-10-20T13:12:50.515Z,9.57
2022-10-20T13:14:03.162Z,9.10
2022-10-20T13:15:13.275Z,9.40
2022-10-20T13:16:21.193Z,9.60
2022-10-20T13:17:29.863Z,10.83
2022-10-20T13:18:38.670Z,9.90
2022-10-20T13:19:46.388Z,12.60
2022-10-20T13:21:03.352Z,8.87
2022-10-20T13:22:32.564Z,10.87
2022-10-20T13:23:42.895Z,9.70
2022-10-20T13:24:45.156Z,9.70
2022-10-20T13:25:50.894Z,9.40
2022-10-20T13:26:56.460Z,9.97
2022-10-20T13:28:13.392Z,9.20
2022-10-20T13:29:41.682Z,9.47
2022-10-20T13:30:55.624Z,9.67
2022-10-20T13:32:20.906Z,10.00
2022-10-20T13:34:06.650Z,11.73
2022-10-20T13:35:05.992Z,9.40
2022-10-20T13:36:07.682Z,11.13
2022-10-20T13:37:35.115Z,10.20
2022-10-20T13:38:58.536Z,10.27
2022-10-20T13:40:10.757Z,9.60
2022-10-20T13:41:33.188Z,9.77
2022-10-20T13:42:49.298Z,9.83
2022-10-20T13:43:58.833Z,10.70
2022-10-20T13:45:11.023Z,10.37
2022-10-20T13:46:44.115Z,10.43
2022-10-20T13:47:57.578Z,10.97
2022-10-20T13:49:28.537Z,10.47
2022-10-20T13:50:34.249Z,9.77
2022-10-20T13:51:47.427Z,10.13
2022-10-20T13:52:59.283Z,11.17
2022-10-20T13:54:05.427Z,10.50
2022-10-20T13:55:16.265Z,9.50
2022-10-20T13:56:18.139Z,9.73
2022-10-20T13:57:35.277Z,10.93
2022-10-20T13:58:37.107Z,11.10
2022-10-20T13:59:59.752Z,10.63
2022-10-20T14:01:03.921Z,11.53
2022-10-20T14:02:26.714Z,10.90
2022-10-20T14:03:30.385Z,11.30
2022-10-20T14:04:38.390Z,12.10
2022-10-20T14:05:41.027Z,11.50
2022-10-20T14:06:44.505Z,12.70
2022-10-20T14:07:50.153Z,13.50
2022-10-20T14:08:53.154Z,12.93
2022-10-20T14:09:59.070Z,12.53
2022-10-20T14:11:11.580Z,12.30
2022-10-20T14:12:25.631Z,13.40
2022-10-20T14:13:33.102Z,12.07
2022-10-20T14:14:35.073Z,12.50
2022-10-20T14:15:44.282Z,12.43
2022-10-20T14:16:53.925Z,12.63
2022-10-20T14:18:01.233Z,13.27
2022-10-20T14:19:09.387Z,12.40
2022-10-20T14:20:21.721Z,12.13
2022-10-20T14:21:24.925Z,12.67
2022-10-20T14:22:27.019Z,12.40
2022-10-20T14:23:51.202Z,10.00
2022-10-20T14:24:56.882Z,11.40
2022-10-20T14:26:00.290Z,12.00
2022-10-20T14:27:05.614Z,12.53
2022-10-20T14:28:11.183Z,12.57
2022-10-20T14:29:16.869Z,11.13
2022-10-20T14:30:19.816Z,12.03
2022-10-20T14:31:23.403Z,11.60
2022-10-20T14:32:35.896Z,11.90
2022-10-20T14:33:42.424Z,12.30
2022-10-20T14:35:39.609Z,12.90
2022-10-20T14:36:45.208Z,12.43
2022-10-20T14:38:15.667Z,11.93
2022-10-20T14:39:29.087Z,13.40
2022-10-20T14:40:37.456Z,12.60
2022-10-20T14:41:39.644Z,13.10
2022-10-20T14:42:45.517Z,13.40
2022-10-20T14:43:50.922Z,13.57
2022-10-20T14:44:57.278Z,14.07
2022-10-20T14:46:01.750Z,13.70
2022-10-20T14:47:07.050Z,15.37
2022-10-20T14:48:15.767Z,13.67
2022-10-20T14:49:38.333Z,12.43
2022-10-20T14:50:43.115Z,11.07
2022-10-20T14:51:58.685Z,12.47
2022-10-20T14:53:23.455Z,12.77
2022-10-20T14:54:31.363Z,13.53
2022-10-20T14:55:37.505Z,13.50
2022-10-20T14:56:52.018Z,14.30
2022-10-20T14:57:54.036Z,13.00
2022-10-20T14:59:01.337Z,12.83
2022-10-20T15:00:28.097Z,14.10
2022-10-20T15:01:32.485Z,12.93
2022-10-20T15:02:43.542Z,11.87